Latest Weather Observations for Woolshed

IDQ60801

Issued at 8:05 am EST Monday 22 September 2014 (issued every 30 minutes, with the page automatically refreshed every 10 minutes)

About weather observations | Map of weather stations | Latest weather observations for QLD | Other Formats
Station Details ID: 033307 Name: WOOLSHED Lat: -19.42 Lon: 146.54 Height: 556.04 m
Data from the previous 72 hours. | See also: Recent months at Woolshed
Date/Time
EST
Temp
°C
App
Temp
°C
Dew
Point
Rel
Hum
%
Delta-T
°C
Wind Press
QNH
hPa
Press
MSL
hPa
Rain
since 9 am
mm
Dir
 
Spd
km/h
Gust
km/h
Spd
kts
Gust
kts
22/08:00am 17.5 18.7 17.3 99 0.1 NE 7 15 4 8 1020.6 1018.1 1.0
22/07:30am 17.7 18.6 17.5 99 0.1 ENE 9 19 5 10 1020.1 1017.6 0.8
22/07:00am 17.3 16.9 17.1 99 0.1 NE 15 24 8 13 1019.5 1017.1 0.6
22/06:30am 17.4 17.5 16.6 95 0.5 NE 11 20 6 11 1019.4 1016.9 0.4
22/06:00am 17.6 17.7 16.6 94 0.6 ENE 11 20 6 11 1018.9 1016.4 0.4
22/05:30am 17.4 17.0 16.3 93 0.7 ENE 13 26 7 14 1018.5 1016.0 0.4
22/05:00am 17.5 17.1 16.2 92 0.8 ENE 13 26 7 14 1018.4 1015.9 0.4
22/04:30am 17.2 17.0 15.7 91 0.9 ENE 11 24 6 13 1018.2 1015.7 0.4
22/04:00am 17.2 17.1 15.9 92 0.8 ENE 11 22 6 12 1017.8 1015.3 0.4
22/03:30am 17.2 16.4 16.1 93 0.7 ENE 15 30 8 16 1017.7 1015.2 0.4
22/03:00am 17.0 17.1 16.4 96 0.4 ENE 11 22 6 12 1018.2 1015.7 0.4
22/02:30am 16.8 16.4 16.2 96 0.4 ENE 13 32 7 17 1018.6 1016.1 0.2
22/02:00am 17.3 17.2 16.0 92 0.8 ENE 11 19 6 10 1018.9 1016.4 0.2
22/01:30am 17.0 16.7 15.5 91 0.9 NE 11 24 6 13 1019.1 1016.6 0.2
22/01:00am 17.3 16.7 15.6 90 1.0 ENE 13 20 7 11 1019.2 1016.7 0.2
22/12:30am 17.5 17.3 15.7 89 1.1 ENE 11 22 6 12 1019.9 1017.5 0.2
22/12:00am 17.6 17.4 15.8 89 1.1 ENE 11 22 6 12 1020.1 1017.6 0.2
 
Date/Time
EST
Temp
°C
App
Temp
°C
Dew
Point
Rel
Hum
%
Delta-T
°C
Wind Press
QNH
hPa
Press
MSL
hPa
Rain
since 9 am
mm
Dir
 
Spd
km/h
Gust
km/h
Spd
kts
Gust
kts
21/11:30pm 17.4 17.3 16.1 92 0.8 ENE 11 26 6 14 1020.5 1018.0 0.0
21/11:00pm 17.5 16.7 16.0 91 0.9 ENE 15 26 8 14 1020.6 1018.1 0.0
21/10:30pm 18.3 18.2 16.1 87 1.3 ENE 11 26 6 14 1021.7 1019.3 0.0
21/10:00pm 18.2 17.1 16.4 89 1.1 ENE 17 33 9 18 1020.4 1017.9 0.0
21/09:30pm 18.2 17.4 16.2 88 1.2 ENE 15 28 8 15 1020.3 1017.8 0.0
21/09:00pm 18.3 18.1 16.6 90 1.0 NE 13 26 7 14 1020.5 1018.0 0.0
21/08:30pm 18.4 17.8 16.7 90 1.0 NE 15 26 8 14 1019.9 1017.5 0.0
21/08:00pm 18.5 18.2 16.5 88 1.2 NE 13 30 7 16 1020.2 1017.7 0.0
21/07:30pm 18.6 18.1 16.8 89 1.1 ENE 15 28 8 15 1019.9 1017.5 0.0
21/07:00pm 18.7 18.6 16.9 89 1.1 ENE 13 24 7 13 1019.7 1017.3 0.0
21/06:30pm 18.8 18.2 16.6 87 1.4 ENE 15 28 8 15 1019.3 1016.8 0.0
21/06:00pm 19.2 18.2 15.7 80 2.1 NE 15 28 8 15 1018.8 1016.3 0.0
21/05:30pm 19.5 17.6 15.2 76 2.6 NE 19 30 10 16 1018.8 1016.3 0.0
21/05:00pm 20.1 18.0 13.6 66 3.8 NE 17 33 9 18 1018.7 1016.2 0.0
21/04:30pm 21.1 18.8 13.0 60 4.7 NE 17 33 9 18 1018.9 1016.4 0.0
21/04:00pm 21.6 19.2 12.7 57 5.2 NE 17 32 9 17 1018.8 1016.3 0.0
21/03:30pm 22.2 20.7 13.0 56 5.4 NE 13 32 7 17 1018.8 1016.3 0.0
21/03:00pm 22.9 21.9 14.5 59 5.1 NE 13 28 7 15 1018.9 1016.4 0.0
21/02:30pm 23.0 21.9 14.3 58 5.2 NE 13 26 7 14 1019.2 1016.7 0.0
21/02:00pm 22.9 21.8 15.2 62 4.7 ENE 15 32 8 17 1019.2 1016.7 0.0
21/01:30pm 22.8 21.2 14.9 61 4.8 NE 17 37 9 20 1019.1 1016.6 0.0
21/01:00pm 22.5 21.1 15.6 65 4.2 NE 17 33 9 18 1019.3 1016.8 0.0
21/12:30pm 22.4 20.8 16.0 67 4.0 NE 19 33 10 18 1019.5 1017.1 0.0
21/12:00pm 22.3 21.1 17.0 72 3.3 NE 19 30 10 16 1019.8 1017.4 0.0
21/11:30am 22.9 21.8 17.4 71 3.5 NE 19 32 10 17 1020.2 1017.7 0.0
21/11:00am 23.1 21.8 16.9 68 3.9 NE 19 33 10 18 1020.5 1018.0 0.0
21/10:30am 22.4 21.1 16.7 70 3.6 NE 19 33 10 18 1020.7 1018.2 0.0
21/10:00am 21.6 20.3 16.8 74 3.0 NE 19 32 10 17 1020.6 1018.1 0.0
21/09:30am 20.6 20.6 18.2 86 1.5 NE 15 26 8 14 1020.6 1018.1 0.0
21/09:00am 19.6 18.9 17.4 87 1.4 NE 17 28 9 15 1020.7 1018.2 0.0
21/08:30am 19.2 18.7 17.7 91 0.9 NE 17 33 9 18 1020.5 1018.0 0.0
21/08:00am 18.7 18.2 17.9 95 0.5 NE 17 30 9 16 1020.1 1017.6 0.0
21/07:30am 18.2 17.3 17.7 97 0.3 NE 19 33 10 18 1019.7 1017.3 0.0
21/07:00am 18.0 17.5 17.7 98 0.2 ENE 17 28 9 15 1019.5 1017.1 0.0
21/06:30am 17.8 17.9 17.5 98 0.2 ENE 13 26 7 14 1019.1 1016.6 0.0
21/06:00am 17.6 18.0 17.3 98 0.2 ENE 11 22 6 12 1018.9 1016.4 0.0
21/05:30am 17.7 18.1 17.2 97 0.3 ENE 11 19 6 10 1018.7 1016.2 0.0
21/05:00am 17.7 17.7 17.2 97 0.3 ENE 13 22 7 12 1018.6 1016.1 0.0
21/04:30am 17.8 18.6 17.3 97 0.3 ENE 9 19 5 10 1018.3 1015.8 0.0
21/04:00am 17.7 18.8 17.2 97 0.3 ENE 7 15 4 8 1017.9 1015.5 0.0
21/03:30am 17.5 18.6 17.0 97 0.3 ENE 7 17 4 9 1017.8 1015.3 0.0
21/03:00am 17.8 18.2 17.2 96 0.4 NE 11 24 6 13 1018.2 1015.7 0.0
21/02:30am 17.8 18.2 17.2 96 0.4 ENE 11 20 6 11 1018.5 1016.0 0.0
21/02:00am 17.9 18.7 17.4 97 0.3 ENE 9 20 5 11 1018.9 1016.4 0.0
21/01:30am 17.8 18.6 17.3 97 0.3 ENE 9 17 5 9 1019.3 1016.8 0.0
21/01:00am 17.8 18.6 17.3 97 0.3 ENE 9 20 5 11 1019.6 1017.2 0.0
21/12:30am 18.0 18.5 17.5 97 0.3 ENE 11 19 6 10 1019.9 1017.5 0.0
21/12:00am 18.0 18.1 17.4 96 0.4 ENE 13 22 7 12 1020.2 1017.7 0.0
 
Date/Time
EST
Temp
°C
App
Temp
°C
Dew
Point
Rel
Hum
%
Delta-T
°C
Wind Press
QNH
hPa
Press
MSL
hPa
Rain
since 9 am
mm
Dir
 
Spd
km/h
Gust
km/h
Spd
kts
Gust
kts
20/11:30pm 17.8 18.1 17.0 95 0.5 NE 11 20 6 11 1020.1 1017.6 0.0
20/11:00pm 17.9 18.6 17.1 95 0.5 NE 9 20 5 11 1020.1 1017.6 0.0
20/10:30pm 18.1 18.5 17.3 95 0.5 NE 11 22 6 12 1020.2 1017.7 0.0
20/10:00pm 17.9 18.7 17.3 96 0.4 NE 9 19 5 10 1019.9 1017.5 0.0
20/09:30pm 17.8 18.2 17.3 97 0.3 NE 11 19 6 10 1019.8 1017.4 0.0
20/09:00pm 17.9 18.8 17.6 98 0.2 NE 9 17 5 9 1019.6 1017.2 0.0
20/08:30pm 18.1 19.1 17.8 98 0.2 NE 9 15 5 8 1019.3 1016.8 0.0
20/08:00pm 18.2 19.2 17.7 97 0.3 NE 9 19 5 10 1019.1 1016.6 0.0
20/07:30pm 18.3 18.6 17.8 97 0.3 NNE 13 22 7 12 1018.6 1016.1 0.0
20/07:00pm 18.4 19.0 17.6 95 0.5 NNE 11 20 6 11 1018.2 1015.7 0.0
20/06:30pm 18.6 19.4 17.4 93 0.7 NNE 9 19 5 10 1017.6 1015.1 0.0
20/06:00pm 19.1 19.6 17.4 90 1.1 NNE 11 20 6 11 1017.0 1014.5 0.0
20/05:30pm 19.8 20.2 17.2 85 1.6 NNE 11 22 6 12 1016.7 1014.2 0.0
20/05:00pm 21.0 20.8 16.8 77 2.6 NNE 13 22 7 12 1016.1 1013.6 0.0
20/04:30pm 22.2 21.8 15.3 65 4.2 NNE 11 24 6 13 1015.9 1013.4 0.0
20/04:00pm 22.8 21.8 14.6 60 5.0 NNE 13 20 7 11 1015.6 1013.1 0.0
20/03:30pm 23.4 22.3 14.4 57 5.4 NNE 13 22 7 12 1015.7 1013.2 0.0
20/03:00pm 24.3 23.6 14.4 54 6.0 NNE 11 20 6 11 1015.7 1013.2 0.0
20/02:30pm 25.1 25.2 15.4 55 6.0 NNE 9 22 5 12 1015.9 1013.4 0.0
20/02:00pm 26.1 25.8 15.5 52 6.6 NNE 11 22 6 12 1016.4 1013.9 0.0
20/01:30pm 25.4 24.9 14.8 52 6.5 NNE 11 20 6 11 1016.7 1014.2 0.0
20/01:00pm 26.9 26.7 15.6 50 7.0 N 11 22 6 12 1017.3 1014.8 0.0
20/12:30pm 26.0 25.8 13.5 46 7.5 NNE 7 19 4 10 1017.8 1015.3 0.0
20/12:00pm 25.9 26.5 15.9 54 6.2 ENE 7 19 4 10 1018.6 1016.1 0.0
20/11:30am 25.0 25.5 15.0 53 6.1 NE 6 11 3 6 1019.2 1016.7 0.0
20/11:00am 24.1 24.7 15.3 58 5.4 N 6 13 3 7 1019.7 1017.3 0.0
20/10:30am 23.2 23.9 15.5 62 4.7 NNE 6 13 3 7 1020.2 1017.7 0.0
20/10:00am 22.4 23.1 15.7 66 4.1 NE 6 13 3 7 1020.6 1018.1 0.0
20/09:30am 21.6 22.4 15.9 70 3.5 NNE 6 11 3 6 1020.7 1018.2 0.0
20/09:00am 20.5 21.1 15.9 75 2.8 ENE 7 15 4 8 1020.8 1018.3 0.0
20/08:30am 20.6 21.8 16.8 79 2.4 NE 6 9 3 5 1020.8 1018.3 0.0
20/08:00am 18.9 19.7 16.3 85 1.6 NE 7 15 4 8 1020.5 1018.0 0.0
20/07:30am 18.2 19.6 17.4 95 0.5 NE 6 11 3 6 1020.1 1017.6 0.0
20/07:00am 17.0 18.9 16.8 99 0.1 NNE 2 4 1 2 1019.7 1017.3 0.0
20/06:30am 16.7 18.6 16.7 100 0.0 NNE 2 4 1 2 1019.4 1016.9 0.0
20/06:00am 16.3 18.0 16.1 99 0.1 NE 2 6 1 3 1019.1 1016.6 0.0
20/05:30am 16.7 18.1 16.5 99 0.1 NE 4 7 2 4 1018.8 1016.3 0.0
20/05:00am 17.2 18.5 17.0 99 0.1 NE 6 9 3 5 1018.5 1016.0 0.0
20/04:30am 17.2 18.3 17.0 99 0.1 NNE 7 13 4 7 1018.0 1015.6 0.0
20/04:00am 17.1 18.3 16.8 98 0.2 NE 6 9 3 5 1018.0 1015.6 0.0
20/03:30am 17.2 18.3 17.0 99 0.1 NE 7 15 4 8 1018.2 1015.7 0.0
20/03:00am 17.3 18.6 17.1 99 0.1 NE 6 13 3 7 1018.4 1015.9 0.0
20/02:30am 17.3 18.6 17.1 99 0.1 NE 6 11 3 6 1018.5 1016.0 0.0
20/02:00am 17.2 18.3 17.0 99 0.1 NE 7 17 4 9 1018.8 1016.3 0.0
20/01:30am 17.3 18.0 17.1 99 0.1 NE 9 17 5 9 1019.1 1016.6 0.0
20/01:00am 17.4 18.5 17.2 99 0.1 NE 7 15 4 8 1019.3 1016.8 0.0
20/12:30am 17.4 18.5 17.2 99 0.1 NE 7 17 4 9 1019.6 1017.2 0.0
20/12:00am 17.4 18.6 17.4 100 0.0 NE 7 15 4 8 1019.6 1017.2 0.0
 
Date/Time
EST
Temp
°C
App
Temp
°C
Dew
Point
Rel
Hum
%
Delta-T
°C
Wind Press
QNH
hPa
Press
MSL
hPa
Rain
since 9 am
mm
Dir
 
Spd
km/h
Gust
km/h
Spd
kts
Gust
kts
19/11:30pm 17.4 18.6 17.4 100 0.0 NE 7 13 4 7 1019.6 1017.2 0.0
19/11:00pm 17.5 18.8 17.5 100 0.0 NE 7 13 4 7 1019.7 1017.3 0.0
19/10:30pm 17.6 18.5 17.6 100 0.0 NE 9 17 5 9 1019.7 1017.3 0.0
19/10:00pm 17.6 17.8 17.6 100 0.0 NE 13 24 7 13 1019.8 1017.4 0.0
19/09:30pm 17.6 18.2 17.6 100 0.0 NE 11 20 6 11 1019.9 1017.5 0.0
19/09:00pm 17.7 18.3 17.7 100 0.0 NNE 11 20 6 11 1019.6 1017.2 0.0
19/08:30pm 17.6 18.4 17.4 99 0.1 NNE 9 19 5 10 1019.4 1016.9 0.0
19/08:00pm 17.3 17.9 16.8 97 0.3 NNE 9 15 5 8 1019.1 1016.6 0.0
19/07:30pm 17.5 18.1 16.7 95 0.5 NNE 9 19 5 10 1018.9 1016.4 0.0
19/07:00pm 17.7 18.2 16.6 93 0.7 NNE 9 15 5 8 1018.6 1016.1 0.0
19/06:30pm 18.2 19.0 16.4 89 1.1 NNE 7 13 4 7 1018.2 1015.7 0.0
19/06:00pm 19.2 19.7 15.5 79 2.2 NNE 7 15 4 8 1017.9 1015.5 0.0
19/05:30pm 20.4 20.3 15.0 71 3.3 NNE 9 19 5 10 1017.7 1015.2 0.0
19/05:00pm 21.4 21.0 14.1 63 4.3 NNE 9 17 5 9 1017.3 1014.8 0.0
19/04:30pm 22.9 22.1 12.8 53 5.9 NE 9 17 5 9 1017.3 1014.8 0.0
19/04:00pm 23.5 22.4 11.9 48 6.7 NNE 9 17 5 9 1017.3 1014.8 0.0
19/03:30pm 23.0 21.6 10.8 46 6.9 NNE 9 20 5 11 1017.4 1014.9 0.0
19/03:00pm 23.3 21.8 12.0 49 6.6 NNE 11 17 6 9 1017.6 1015.1 0.0
19/02:30pm 23.2 22.4 13.9 56 5.6 N 11 20 6 11 1017.8 1015.3 0.0
19/02:00pm 24.5 24.2 14.3 53 6.2 NNE 9 19 5 10 1018.0 1015.6 0.0
19/01:30pm 25.2 24.5 14.3 50 6.6 NE 11 20 6 11 1018.5 1016.0 0.0
19/01:00pm 24.8 24.5 14.3 52 6.4 NNE 9 19 5 10 1018.8 1016.3 0.0
19/12:30pm 24.3 23.9 14.1 53 6.2 N 9 17 5 9 1019.2 1016.7 0.0
19/12:00pm 24.7 24.4 13.3 49 6.8 NNE 7 13 4 7 1019.8 1017.4 0.0
19/11:30am 23.3 22.9 14.0 56 5.6 N 9 19 5 10 1020.4 1017.9 0.0
19/11:00am 23.4 23.7 14.9 59 5.2 NNE 7 19 4 10 1021.0 1018.5 0.0
19/10:30am 22.0 21.5 14.9 64 4.3 NE 11 22 6 12 1021.4 1019.0 0.0
19/10:00am 22.2 22.5 16.0 68 3.8 NNE 9 22 5 12 1021.5 1019.1 0.0
19/09:30am 20.3 20.2 16.1 77 2.6 NNE 11 22 6 12 1021.6 1019.2 0.0
19/09:00am 20.0 19.9 16.0 78 2.4 NE 11 20 6 11 1021.5 1019.1 0.0
19/08:30am 19.9 20.8 17.5 86 1.5 NNE 9 17 5 9 1021.4 1019.0 0.0

Other Formats:

Comma delimited format used in spreadsheet applications
http://www.bom.gov.au/fwo/IDQ60801/IDQ60801.95293.axf

JavaScript Object Notation format (JSON) in row-major order
http://www.bom.gov.au/fwo/IDQ60801/IDQ60801.95293.json